createdAt,value
2022-11-15T00:01:20.645Z,19.63
2022-11-15T00:03:50.756Z,20.38
2022-11-15T00:06:19.352Z,18.02
2022-11-15T00:08:47.843Z,17.35
2022-11-15T00:11:17.727Z,20.73
2022-11-15T00:13:46.180Z,16.77
2022-11-15T00:16:14.618Z,19.75
2022-11-15T00:18:47.781Z,19.77
2022-11-15T00:21:19.362Z,20.45
2022-11-15T00:23:47.755Z,18.88
2022-11-15T00:26:17.650Z,20.17
2022-11-15T00:28:46.177Z,17.17
2022-11-15T00:31:15.830Z,17.70
2022-11-15T00:33:46.386Z,18.25
2022-11-15T00:36:14.839Z,17.02
2022-11-15T00:38:43.302Z,20.70
2022-11-15T00:41:13.967Z,17.25
2022-11-15T00:43:44.672Z,20.55
2022-11-15T00:46:13.351Z,18.35
2022-11-15T00:48:41.784Z,18.13
2022-11-15T00:51:10.489Z,19.08
2022-11-15T00:53:38.889Z,20.35
2022-11-15T00:56:07.857Z,16.98
2022-11-15T00:58:36.397Z,15.30
2022-11-15T01:01:10.797Z,16.17
2022-11-15T01:03:40.021Z,17.58
2022-11-15T01:06:09.095Z,15.70
2022-11-15T01:08:37.972Z,17.90
2022-11-15T01:11:08.540Z,17.95
2022-11-15T01:13:37.348Z,17.73
2022-11-15T01:16:11.115Z,16.15
2022-11-15T01:18:39.631Z,17.02
2022-11-15T01:21:10.100Z,16.85
2022-11-15T01:23:38.910Z,14.38
2022-11-15T01:26:09.262Z,17.08
2022-11-15T01:28:39.477Z,16.30
2022-11-15T01:31:13.582Z,16.98
2022-11-15T01:33:42.054Z,15.60
2022-11-15T01:36:13.312Z,15.50
2022-11-15T01:38:41.803Z,15.80
2022-11-15T01:41:18.378Z,14.27
2022-11-15T01:43:48.288Z,15.20
2022-11-15T01:46:29.513Z,14.70
2022-11-15T01:48:59.985Z,17.27
2022-11-15T01:51:29.082Z,14.90
2022-11-15T01:53:59.000Z,14.75
2022-11-15T01:56:30.111Z,15.38
2022-11-15T01:58:59.452Z,14.32
2022-11-15T02:01:29.517Z,16.00
2022-11-15T02:04:01.004Z,14.90
2022-11-15T02:06:29.485Z,16.15
2022-11-15T02:08:58.174Z,14.02
2022-11-15T02:11:26.683Z,16.52
2022-11-15T02:13:55.249Z,16.15
2022-11-15T02:16:30.373Z,16.90
2022-11-15T02:19:04.053Z,12.73
2022-11-15T02:21:35.739Z,14.40
2022-11-15T02:24:48.754Z,17.77
2022-11-15T02:27:48.086Z,14.52
2022-11-15T02:30:30.055Z,15.75
2022-11-15T02:33:01.056Z,15.13
2022-11-15T02:35:36.655Z,14.15
2022-11-15T02:38:09.683Z,16.17
2022-11-15T02:40:43.179Z,14.38
2022-11-15T02:43:30.994Z,15.93
2022-11-15T02:46:04.560Z,14.23
2022-11-15T02:48:33.517Z,13.77
2022-11-15T02:51:02.361Z,14.18
2022-11-15T02:53:31.165Z,15.10
2022-11-15T02:55:59.913Z,13.48
2022-11-15T02:58:59.676Z,14.07
2022-11-15T03:01:40.812Z,13.90
2022-11-15T03:04:18.837Z,13.82
2022-11-15T03:06:50.971Z,15.27
2022-11-15T03:09:25.927Z,14.27
2022-11-15T03:11:58.609Z,14.13
2022-11-15T03:14:30.981Z,13.38
2022-11-15T03:17:04.395Z,14.25
2022-11-15T03:19:36.564Z,13.73
2022-11-15T03:22:06.861Z,13.10
2022-11-15T03:24:36.926Z,12.30
2022-11-15T03:27:05.626Z,13.93
2022-11-15T03:29:35.480Z,13.50
2022-11-15T03:32:07.669Z,13.82
2022-11-15T03:34:40.257Z,14.23
2022-11-15T03:37:08.708Z,12.07
2022-11-15T03:39:37.255Z,14.75
2022-11-15T03:42:13.460Z,14.48
2022-11-15T03:44:45.371Z,12.27
2022-11-15T03:47:18.663Z,12.68
2022-11-15T03:49:48.836Z,14.18
2022-11-15T03:52:19.714Z,14.02
2022-11-15T03:54:52.681Z,15.93
2022-11-15T03:57:21.102Z,10.88
2022-11-15T03:59:49.493Z,15.13
2022-11-15T04:02:19.320Z,12.35
2022-11-15T04:04:47.755Z,13.38
2022-11-15T04:07:16.295Z,14.60
2022-11-15T04:09:58.893Z,12.25
2022-11-15T04:12:32.633Z,14.10
2022-11-15T04:15:11.948Z,12.82
2022-11-15T04:17:43.561Z,12.73
2022-11-15T04:20:32.830Z,11.80
2022-11-15T04:23:19.693Z,14.10
2022-11-15T04:25:48.159Z,11.48
2022-11-15T04:28:16.706Z,13.18
2022-11-15T04:30:45.136Z,14.05
2022-11-15T04:33:15.274Z,13.65
2022-11-15T04:35:44.314Z,12.57
2022-11-15T04:38:13.845Z,11.98
2022-11-15T04:40:42.464Z,14.60
2022-11-15T04:43:11.013Z,11.60
2022-11-15T04:45:39.511Z,12.40
2022-11-15T04:48:08.222Z,14.70
2022-11-15T04:50:38.009Z,12.95
2022-11-15T04:53:07.139Z,13.13
2022-11-15T04:55:35.707Z,13.23
2022-11-15T04:58:04.472Z,12.70
2022-11-15T05:00:33.149Z,14.52
2022-11-15T05:03:19.124Z,12.75
2022-11-15T05:05:49.087Z,12.98
2022-11-15T05:08:17.580Z,13.52
2022-11-15T05:10:46.111Z,12.30
2022-11-15T05:13:14.612Z,13.15
2022-11-15T05:15:43.073Z,13.40
2022-11-15T05:18:11.649Z,12.25
2022-11-15T05:20:40.140Z,13.07
2022-11-15T05:23:10.132Z,12.27
2022-11-15T05:25:38.863Z,12.07
2022-11-15T05:28:07.439Z,13.57
2022-11-15T05:30:35.923Z,12.77
2022-11-15T05:33:04.735Z,12.48
2022-11-15T05:35:36.792Z,13.02
2022-11-15T05:38:05.482Z,12.55
2022-11-15T05:40:35.421Z,11.77
2022-11-15T05:43:04.046Z,12.07
2022-11-15T05:45:33.125Z,11.80
2022-11-15T05:48:01.679Z,13.05
2022-11-15T05:50:30.190Z,12.40
2022-11-15T05:53:02.297Z,13.48
2022-11-15T05:55:34.935Z,12.68
2022-11-15T05:58:03.513Z,13.45
2022-11-15T06:00:32.113Z,12.32
2022-11-15T06:03:00.627Z,12.60
2022-11-15T06:05:29.208Z,11.25
2022-11-15T06:08:00.813Z,12.90
2022-11-15T06:10:29.492Z,10.75
2022-11-15T06:13:02.340Z,11.38
2022-11-15T06:15:30.937Z,12.07
2022-11-15T06:17:59.615Z,12.57
2022-11-15T06:20:28.609Z,12.07
2022-11-15T06:23:00.136Z,11.52
2022-11-15T06:25:29.227Z,12.45
2022-11-15T06:27:59.090Z,13.25
2022-11-15T06:30:29.188Z,12.18
2022-11-15T06:33:04.471Z,10.65
2022-11-15T06:35:34.758Z,13.35
2022-11-15T06:38:05.489Z,13.68
2022-11-15T06:40:36.851Z,13.38
2022-11-15T06:43:05.549Z,14.10
2022-11-15T06:45:35.732Z,15.55
2022-11-15T06:48:04.659Z,15.07
2022-11-15T06:50:33.223Z,14.23
2022-11-15T06:53:04.372Z,13.68
2022-11-15T06:55:32.885Z,12.68
2022-11-15T06:58:01.718Z,13.50
2022-11-15T07:00:30.217Z,14.18
2022-11-15T07:03:01.856Z,12.27
2022-11-15T07:05:31.539Z,12.48
2022-11-15T07:08:00.521Z,14.07
2022-11-15T07:10:29.806Z,17.42
2022-11-15T07:12:58.495Z,16.35
2022-11-15T07:15:27.893Z,15.13
2022-11-15T07:17:56.412Z,16.92
2022-11-15T07:20:26.228Z,16.67
2022-11-15T07:23:01.867Z,17.35
2022-11-15T07:25:30.331Z,16.98
2022-11-15T07:27:59.066Z,17.58
2022-11-15T07:30:28.010Z,14.30
2022-11-15T07:32:56.936Z,15.55
2022-11-15T07:35:27.310Z,14.95
2022-11-15T07:37:57.472Z,13.57
2022-11-15T07:40:26.206Z,14.00
2022-11-15T07:42:54.665Z,17.98
2022-11-15T07:45:23.480Z,14.88
2022-11-15T07:47:52.086Z,13.05
2022-11-15T07:50:20.769Z,13.63
2022-11-15T07:52:57.545Z,16.15
2022-11-15T07:55:26.246Z,13.75
2022-11-15T07:57:54.870Z,14.07
2022-11-15T08:00:23.679Z,13.52
2022-11-15T08:02:52.218Z,16.17
2022-11-15T08:05:20.829Z,13.15
2022-11-15T08:07:52.736Z,14.70
2022-11-15T08:10:21.776Z,15.45
2022-11-15T08:12:50.486Z,13.98
2022-11-15T08:15:19.118Z,14.32
2022-11-15T08:17:47.676Z,14.65
2022-11-15T08:20:16.969Z,14.95
2022-11-15T08:22:45.485Z,12.70
2022-11-15T08:25:15.470Z,15.95
2022-11-15T08:27:44.987Z,15.20
2022-11-15T08:30:14.681Z,13.98
2022-11-15T08:32:43.254Z,14.52
2022-11-15T08:35:11.766Z,14.07
2022-11-15T08:37:40.348Z,13.55
2022-11-15T08:40:10.645Z,15.40
2022-11-15T08:42:40.509Z,17.15
2022-11-15T08:45:10.511Z,14.23
2022-11-15T08:47:39.039Z,11.98
2022-11-15T08:50:08.952Z,17.02
2022-11-15T08:52:37.451Z,15.18
2022-11-15T08:55:07.318Z,15.00
2022-11-15T08:57:35.845Z,14.30
2022-11-15T09:00:07.042Z,15.88
2022-11-15T09:02:35.519Z,15.27
2022-11-15T09:05:04.095Z,15.63
2022-11-15T09:07:32.964Z,13.75
2022-11-15T09:10:01.822Z,16.25
2022-11-15T09:12:31.298Z,14.20
2022-11-15T09:15:00.041Z,14.38
2022-11-15T09:17:32.944Z,18.70
2022-11-15T09:20:01.881Z,18.73
2022-11-15T09:22:31.179Z,21.38
2022-11-15T09:24:59.943Z,24.58
2022-11-15T09:27:30.084Z,20.50
2022-11-15T09:29:58.681Z,21.92
2022-11-15T09:32:37.815Z,27.00
2022-11-15T09:35:08.523Z,26.15
2022-11-15T09:37:39.862Z,24.38
2022-11-15T09:40:11.464Z,28.35
2022-11-15T09:43:00.117Z,25.13
2022-11-15T09:45:32.996Z,29.60
2022-11-15T09:48:30.599Z,24.90
2022-11-15T09:51:02.285Z,22.88
2022-11-15T09:54:13.562Z,23.98
2022-11-15T09:56:25.164Z,36.92
2022-11-15T09:59:00.040Z,29.85
2022-11-15T10:01:39.015Z,31.77
2022-11-15T10:04:11.819Z,43.20
2022-11-15T10:06:43.925Z,51.05
2022-11-15T10:09:22.524Z,36.90
2022-11-15T10:11:52.501Z,49.17
2022-11-15T10:14:22.457Z,42.22
2022-11-15T10:17:34.198Z,46.78
2022-11-15T10:20:13.298Z,36.33
2022-11-15T10:22:43.385Z,32.28
2022-11-15T10:25:23.746Z,30.27
2022-11-15T10:27:58.327Z,50.13
2022-11-15T10:30:35.864Z,40.70
2022-11-15T10:33:27.364Z,44.08
2022-11-15T10:36:19.273Z,48.67
2022-11-15T10:38:59.956Z,57.00
2022-11-15T10:41:35.783Z,49.75
2022-11-15T10:44:28.695Z,50.45
2022-11-15T10:47:23.850Z,42.70
2022-11-15T10:50:28.903Z,50.45
2022-11-15T10:52:58.883Z,43.55
2022-11-15T10:55:29.701Z,40.55
2022-11-15T10:58:06.355Z,41.15
2022-11-15T11:00:37.183Z,43.72
2022-11-15T11:03:08.203Z,42.30
2022-11-15T11:05:42.381Z,41.60
2022-11-15T11:08:25.023Z,39.80
2022-11-15T11:11:02.149Z,39.28
2022-11-15T11:13:33.826Z,39.60
2022-11-15T11:16:36.316Z,36.67
2022-11-15T11:19:18.763Z,35.65
2022-11-15T11:21:57.768Z,39.95
2022-11-15T11:24:33.066Z,34.42
2022-11-15T11:27:14.454Z,35.28
2022-11-15T11:30:08.811Z,38.05
2022-11-15T11:32:54.850Z,40.28
2022-11-15T11:35:28.407Z,69.75
2022-11-15T11:38:02.943Z,48.22
2022-11-15T11:40:39.345Z,38.60
2022-11-15T11:43:14.656Z,38.60
2022-11-15T11:46:03.861Z,39.80
2022-11-15T11:48:43.447Z,37.40
2022-11-15T11:51:18.748Z,35.50
2022-11-15T11:53:53.090Z,35.47
2022-11-15T11:56:27.639Z,38.75
2022-11-15T11:58:57.672Z,33.92
2022-11-15T12:01:30.920Z,35.15
2022-11-15T12:04:01.992Z,40.15
2022-11-15T12:06:34.352Z,35.88
2022-11-15T12:09:06.298Z,36.00
2022-11-15T12:11:41.123Z,32.58
2022-11-15T12:14:15.172Z,32.80
2022-11-15T12:16:44.263Z,30.60
2022-11-15T12:19:14.348Z,32.15
2022-11-15T12:21:47.156Z,31.67
2022-11-15T12:24:18.908Z,31.63
2022-11-15T12:26:53.165Z,32.47
2022-11-15T12:29:29.063Z,26.95
2022-11-15T12:32:01.044Z,28.00
2022-11-15T12:34:45.996Z,27.17
2022-11-15T12:37:56.198Z,30.17
2022-11-15T12:40:30.993Z,30.60
2022-11-15T12:43:31.621Z,27.08
2022-11-15T12:46:07.427Z,30.40
2022-11-15T12:49:00.544Z,27.83
2022-11-15T12:52:09.434Z,22.83
2022-11-15T12:55:02.950Z,25.52
2022-11-15T12:57:40.538Z,24.38
2022-11-15T13:00:41.141Z,24.13
2022-11-15T13:03:26.458Z,25.40
2022-11-15T13:06:05.065Z,25.75
2022-11-15T13:08:52.031Z,27.80
2022-11-15T13:12:00.754Z,27.52
2022-11-15T13:14:56.409Z,29.80
2022-11-15T13:17:33.802Z,26.70
2022-11-15T13:20:25.330Z,25.25
2022-11-15T13:23:00.372Z,23.05
2022-11-15T13:26:13.159Z,23.40
2022-11-15T13:28:46.260Z,24.05
2022-11-15T13:31:29.980Z,23.58
2022-11-15T13:34:03.092Z,24.98
2022-11-15T13:36:34.279Z,25.35
2022-11-15T13:39:04.788Z,24.38
2022-11-15T13:41:34.893Z,22.98
2022-11-15T13:44:04.773Z,23.17
2022-11-15T13:46:34.758Z,25.40
2022-11-15T13:49:05.859Z,24.73
2022-11-15T13:51:39.141Z,24.92
2022-11-15T13:54:17.158Z,24.92
2022-11-15T13:56:48.969Z,23.83
2022-11-15T13:59:25.978Z,24.23
2022-11-15T14:01:54.952Z,24.20
2022-11-15T14:04:26.325Z,22.80
2022-11-15T14:06:56.688Z,21.42
2022-11-15T14:09:37.851Z,25.98
2022-11-15T14:12:30.302Z,26.63
2022-11-15T14:14:59.258Z,22.85
2022-11-15T14:17:39.476Z,21.02
2022-11-15T14:20:32.984Z,23.13
2022-11-15T14:23:02.645Z,23.05
2022-11-15T14:25:33.016Z,25.27
2022-11-15T14:28:30.309Z,24.00
2022-11-15T14:31:00.258Z,21.63
2022-11-15T14:33:31.751Z,23.38
2022-11-15T14:36:06.416Z,24.75
2022-11-15T14:38:36.053Z,22.70
2022-11-15T14:41:04.646Z,25.55
2022-11-15T14:43:33.090Z,23.90
2022-11-15T14:46:01.641Z,24.40
2022-11-15T14:48:30.327Z,24.85
2022-11-15T14:51:00.854Z,21.33
2022-11-15T14:53:29.375Z,25.10
2022-11-15T14:55:57.885Z,22.75
2022-11-15T14:58:26.365Z,25.75
2022-11-15T15:00:54.876Z,27.85
2022-11-15T15:03:23.337Z,23.17
2022-11-15T15:05:51.772Z,25.17
2022-11-15T15:08:21.718Z,21.75
2022-11-15T15:10:50.540Z,22.23
2022-11-15T15:13:20.739Z,23.02
2022-11-15T15:15:49.647Z,26.05
2022-11-15T15:18:19.138Z,23.60
2022-11-15T15:20:55.808Z,23.60
2022-11-15T15:23:27.703Z,25.55
2022-11-15T15:25:56.170Z,24.88
2022-11-15T15:28:27.581Z,24.42
2022-11-15T15:30:58.606Z,22.90
2022-11-15T15:33:27.127Z,23.08
2022-11-15T15:35:55.566Z,27.25
2022-11-15T15:38:29.146Z,22.25
2022-11-15T15:40:57.837Z,23.77
2022-11-15T15:43:26.375Z,23.33
2022-11-15T15:45:54.798Z,25.40
2022-11-15T15:48:23.355Z,24.20
2022-11-15T15:50:52.134Z,24.15
2022-11-15T15:53:20.625Z,25.52
2022-11-15T15:55:50.869Z,25.00
2022-11-15T15:58:19.408Z,26.13
2022-11-15T16:00:47.950Z,27.05
2022-11-15T16:03:16.623Z,27.58
2022-11-15T16:05:45.108Z,24.77
2022-11-15T16:08:19.799Z,24.10
2022-11-15T16:10:48.448Z,24.90
2022-11-15T16:13:18.549Z,21.95
2022-11-15T16:15:54.443Z,26.17
2022-11-15T16:18:22.917Z,23.92
2022-11-15T16:20:53.167Z,25.90
2022-11-15T16:23:24.614Z,23.40
2022-11-15T16:25:54.183Z,24.42
2022-11-15T16:28:25.782Z,22.92
2022-11-15T16:31:02.640Z,24.40
2022-11-15T16:33:31.373Z,21.67
2022-11-15T16:36:00.171Z,24.35
2022-11-15T16:38:28.630Z,26.73
2022-11-15T16:40:58.257Z,24.92
2022-11-15T16:43:28.127Z,23.73
2022-11-15T16:45:56.576Z,22.60
2022-11-15T16:48:27.156Z,27.90
2022-11-15T16:50:57.362Z,24.55
2022-11-15T16:53:26.111Z,24.60
2022-11-15T16:55:54.814Z,22.83
2022-11-15T16:58:23.342Z,26.15
2022-11-15T17:00:54.480Z,21.08
2022-11-15T17:03:23.443Z,26.90
2022-11-15T17:05:52.186Z,24.13
2022-11-15T17:08:29.471Z,24.13
2022-11-15T17:10:57.964Z,26.60
2022-11-15T17:13:45.313Z,25.60
2022-11-15T17:16:16.499Z,26.60
2022-11-15T17:18:46.168Z,75.07
2022-11-15T17:21:33.920Z,207.77
2022-11-15T17:24:02.455Z,148.00
2022-11-15T17:26:33.987Z,106.55
2022-11-15T17:29:07.836Z,126.20
2022-11-15T17:31:38.042Z,151.77
2022-11-15T17:34:07.289Z,117.78
2022-11-15T17:36:36.022Z,135.23
2022-11-15T17:39:04.769Z,132.68
2022-11-15T17:41:33.237Z,113.80
2022-11-15T17:44:20.182Z,126.03
2022-11-15T17:46:50.049Z,125.93
2022-11-15T17:49:18.492Z,123.32
2022-11-15T17:51:50.353Z,115.93
2022-11-15T17:54:18.904Z,151.85
2022-11-15T17:57:05.618Z,129.05
2022-11-15T17:59:34.061Z,133.77
2022-11-15T18:02:03.941Z,110.25
2022-11-15T18:04:32.380Z,109.95
2022-11-15T18:07:00.900Z,111.43
2022-11-15T18:09:29.905Z,101.47
2022-11-15T18:11:58.812Z,91.03
2022-11-15T18:14:46.090Z,100.60
2022-11-15T18:17:16.005Z,86.00
2022-11-15T18:19:44.478Z,85.82
2022-11-15T18:22:12.996Z,82.22
2022-11-15T18:24:43.125Z,86.07
2022-11-15T18:27:11.612Z,73.53
2022-11-15T18:29:40.209Z,79.47
2022-11-15T18:32:28.385Z,70.50
2022-11-15T18:34:57.030Z,73.50
2022-11-15T18:37:25.553Z,74.65
2022-11-15T18:39:54.282Z,76.20
2022-11-15T18:42:22.832Z,71.53
2022-11-15T18:44:51.525Z,68.05
2022-11-15T18:47:20.042Z,70.55
2022-11-15T18:49:50.760Z,66.63
2022-11-15T18:52:38.020Z,63.75
2022-11-15T18:55:07.607Z,65.28
2022-11-15T18:57:54.469Z,61.42
2022-11-15T19:00:41.459Z,64.03
2022-11-15T19:03:10.084Z,60.08
2022-11-15T19:05:40.047Z,62.38
2022-11-15T19:08:08.520Z,56.80
2022-11-15T19:10:37.068Z,63.15
2022-11-15T19:13:08.255Z,55.13
2022-11-15T19:15:36.913Z,62.75
2022-11-15T19:18:23.783Z,58.70
2022-11-15T19:20:53.952Z,61.67
2022-11-15T19:23:22.674Z,55.78
2022-11-15T19:25:58.238Z,52.47
2022-11-15T19:28:45.500Z,57.92
2022-11-15T19:31:15.132Z,55.03
2022-11-15T19:33:44.814Z,48.25
2022-11-15T19:36:17.335Z,52.80
2022-11-15T19:38:46.393Z,51.45
2022-11-15T19:41:19.266Z,47.83
2022-11-15T19:43:48.976Z,48.58
2022-11-15T19:46:17.843Z,52.42
2022-11-15T19:49:05.271Z,47.60
2022-11-15T19:51:35.148Z,47.00
2022-11-15T19:54:06.818Z,45.45
2022-11-15T19:56:35.828Z,57.08
2022-11-15T19:59:05.031Z,52.13
2022-11-15T20:01:36.289Z,50.47
2022-11-15T20:04:05.277Z,45.08
2022-11-15T20:06:37.303Z,51.30
2022-11-15T20:09:05.902Z,48.65
2022-11-15T20:11:38.042Z,50.15
2022-11-15T20:14:08.996Z,46.85
2022-11-15T20:16:56.142Z,54.88
2022-11-15T20:19:24.709Z,63.20
2022-11-15T20:21:54.604Z,60.05
2022-11-15T20:24:23.732Z,58.63
2022-11-15T20:26:52.218Z,50.30
2022-11-15T20:29:20.663Z,48.25
2022-11-15T20:31:49.224Z,47.55
2022-11-15T20:34:17.738Z,45.85
2022-11-15T20:36:46.348Z,50.25
2022-11-15T20:39:16.151Z,46.63
2022-11-15T20:41:44.614Z,44.22
2022-11-15T20:44:13.120Z,44.60
2022-11-15T20:46:41.705Z,47.85
2022-11-15T20:49:10.240Z,44.58
2022-11-15T20:51:38.766Z,48.22
2022-11-15T20:54:07.577Z,44.95
2022-11-15T20:56:37.385Z,49.63
2022-11-15T20:59:05.906Z,45.60
2022-11-15T21:01:34.472Z,44.95
2022-11-15T21:04:03.299Z,43.78
2022-11-15T21:06:32.046Z,50.13
2022-11-15T21:09:18.385Z,47.30
2022-11-15T21:12:05.929Z,52.00
2022-11-15T21:14:34.464Z,41.05
2022-11-15T21:17:03.066Z,40.47
2022-11-15T21:19:36.676Z,49.10
2022-11-15T21:22:06.998Z,41.10
2022-11-15T21:24:37.123Z,40.75
2022-11-15T21:27:06.963Z,44.47
2022-11-15T21:29:38.646Z,40.58
2022-11-15T21:32:07.533Z,37.35
2022-11-15T21:34:36.058Z,43.22
2022-11-15T21:37:04.738Z,40.90
2022-11-15T21:39:33.210Z,38.10
2022-11-15T21:42:01.653Z,44.65
2022-11-15T21:44:31.762Z,41.28
2022-11-15T21:47:00.330Z,35.35
2022-11-15T21:49:28.812Z,34.83
2022-11-15T21:51:57.297Z,37.80
2022-11-15T21:54:25.778Z,39.83
2022-11-15T21:56:54.271Z,34.97
2022-11-15T21:59:22.888Z,37.22
2022-11-15T22:02:10.535Z,35.20
2022-11-15T22:04:39.027Z,35.80
2022-11-15T22:07:07.582Z,40.42
2022-11-15T22:09:36.445Z,38.00
2022-11-15T22:12:05.248Z,40.08
2022-11-15T22:14:33.722Z,41.63
2022-11-15T22:17:03.785Z,41.55
2022-11-15T22:19:32.359Z,36.28
2022-11-15T22:22:00.884Z,37.78
2022-11-15T22:24:29.876Z,38.58
2022-11-15T22:26:58.348Z,36.65
2022-11-15T22:29:27.094Z,38.85
2022-11-15T22:31:55.629Z,39.20
2022-11-15T22:34:25.674Z,38.20
2022-11-15T22:37:19.024Z,38.45
2022-11-15T22:39:42.583Z,37.88
2022-11-15T22:42:11.120Z,39.85
2022-11-15T22:44:39.638Z,37.60
2022-11-15T22:47:08.205Z,36.20
2022-11-15T22:49:38.089Z,36.70
2022-11-15T22:52:06.949Z,39.22
2022-11-15T22:54:35.438Z,37.03
2022-11-15T22:57:04.254Z,41.50
2022-11-15T22:59:32.806Z,35.95
2022-11-15T23:02:01.272Z,36.00
2022-11-15T23:04:34.671Z,38.65
2022-11-15T23:07:04.770Z,39.13
2022-11-15T23:09:33.455Z,36.60
2022-11-15T23:12:21.413Z,38.20
2022-11-15T23:14:49.888Z,35.90
2022-11-15T23:17:18.432Z,36.30
2022-11-15T23:19:47.140Z,37.53
2022-11-15T23:22:34.728Z,38.65
2022-11-15T23:25:03.265Z,36.88
2022-11-15T23:27:31.803Z,38.00
2022-11-15T23:30:17.845Z,35.15
2022-11-15T23:33:03.735Z,33.35
2022-11-15T23:35:32.264Z,37.47
2022-11-15T23:38:02.206Z,33.95
2022-11-15T23:40:30.743Z,41.13
2022-11-15T23:42:59.722Z,38.88
2022-11-15T23:45:29.599Z,37.63
2022-11-15T23:48:01.416Z,36.72
2022-11-15T23:50:32.745Z,37.60
2022-11-15T23:53:02.683Z,33.83
2022-11-15T23:55:31.279Z,36.03
2022-11-15T23:58:00.635Z,34.95
